createdAt,value
2017-05-11T00:07:09.972Z,10.70
2017-05-11T00:09:38.849Z,10.70
2017-05-11T00:12:12.248Z,10.70
2017-05-11T00:14:45.084Z,10.70
2017-05-11T00:17:29.857Z,10.70
2017-05-11T00:20:00.541Z,10.50
2017-05-11T00:22:35.841Z,10.50
2017-05-11T00:32:54.209Z,10.80
2017-05-11T00:38:04.156Z,10.80
2017-05-11T00:40:36.064Z,10.90
2017-05-11T00:43:07.358Z,10.90
2017-05-11T00:51:10.821Z,10.90
2017-05-11T00:53:43.164Z,10.90
2017-05-11T00:56:12.921Z,10.90
2017-05-11T01:03:54.114Z,10.60
2017-05-11T01:06:25.125Z,10.60
2017-05-11T01:11:40.764Z,10.70
2017-05-11T01:14:09.989Z,10.60
2017-05-11T01:16:42.841Z,10.60
2017-05-11T01:19:17.178Z,10.40
2017-05-11T01:27:06.633Z,10.20
2017-05-11T01:34:57.197Z,10.30
2017-05-11T01:42:51.737Z,10.30
2017-05-11T01:45:20.900Z,10.30
2017-05-11T01:47:48.664Z,10.30
2017-05-11T01:58:11.176Z,10.20
2017-05-11T02:03:13.400Z,10.00
2017-05-11T02:08:22.480Z,9.90
2017-05-11T02:10:53.978Z,10.00
2017-05-11T02:13:24.228Z,10.00
2017-05-11T02:18:30.064Z,9.60
2017-05-11T02:23:43.542Z,9.60
2017-05-11T02:26:12.548Z,9.50
2017-05-11T02:28:47.917Z,9.50
2017-05-11T02:39:23.491Z,9.60
2017-05-11T02:49:59.407Z,9.60
2017-05-11T02:57:36.830Z,9.50
2017-05-11T03:00:04.468Z,9.50
2017-05-11T03:13:14.372Z,9.30
2017-05-11T03:18:18.724Z,9.50
2017-05-11T03:25:56.987Z,9.40
2017-05-11T03:31:01.765Z,9.20
2017-05-11T03:36:18.570Z,9.10
2017-05-11T03:38:46.234Z,8.90
2017-05-11T03:41:14.766Z,8.90
2017-05-11T03:43:45.341Z,8.90
2017-05-11T03:54:17.163Z,9.40
2017-05-11T03:56:46.577Z,9.60
2017-05-11T03:59:19.893Z,9.60
2017-05-11T04:14:55.461Z,9.30
2017-05-11T04:17:23.982Z,9.30
2017-05-11T04:25:20.438Z,9.20
2017-05-11T04:27:52.227Z,9.20
2017-05-11T04:33:11.856Z,9.20
2017-05-11T04:35:58.197Z,9.20
2017-05-11T04:38:39.171Z,9.20
2017-05-11T04:41:28.183Z,9.40
2017-05-11T04:49:27.789Z,9.70
2017-05-11T04:52:03.929Z,9.70
2017-05-11T04:57:22.021Z,9.80
2017-05-11T05:00:05.577Z,9.80
2017-05-11T05:05:17.079Z,9.90
2017-05-11T05:10:22.147Z,10.10
2017-05-11T05:12:54.657Z,10.10
2017-05-11T05:15:31.105Z,10.30
2017-05-11T05:18:09.256Z,10.40
2017-05-11T05:20:45.353Z,10.60
2017-05-11T05:23:20.309Z,10.60
2017-05-11T05:33:25.765Z,10.80
2017-05-11T05:35:53.734Z,10.90
2017-05-11T05:43:50.821Z,11.20
2017-05-11T05:46:19.605Z,11.30
2017-05-11T05:49:04.351Z,11.60
2017-05-11T05:54:09.266Z,11.70
2017-05-11T05:59:17.093Z,12.10
2017-05-11T06:04:20.000Z,12.70
2017-05-11T06:09:25.724Z,12.80
2017-05-11T06:19:49.341Z,13.30
2017-05-11T06:25:05.185Z,13.60
2017-05-11T06:27:39.892Z,13.60
2017-05-11T06:35:20.738Z,13.90
2017-05-11T06:37:47.620Z,14.00
2017-05-11T06:40:15.745Z,14.10
2017-05-11T06:48:05.385Z,14.30
2017-05-11T06:50:36.100Z,14.30
2017-05-11T06:53:05.240Z,14.40
2017-05-11T07:17:16.267Z,14.20
2017-05-11T07:19:50.655Z,14.30
2017-05-11T07:22:19.974Z,14.30
2017-05-11T07:35:20.577Z,15.40
2017-05-11T07:40:30.088Z,15.50
2017-05-11T07:43:00.124Z,15.60
2017-05-11T07:45:28.594Z,15.40
2017-05-11T07:50:31.215Z,15.30
2017-05-11T07:55:39.488Z,15.20
2017-05-11T07:58:13.256Z,15.20
2017-05-11T08:03:27.690Z,15.40
2017-05-11T08:06:08.770Z,15.40
2017-05-11T08:16:30.958Z,15.80
2017-05-11T08:38:10.426Z,16.60
2017-05-11T08:43:17.456Z,16.90
2017-05-11T08:48:33.425Z,17.10
2017-05-11T08:51:02.098Z,17.40
2017-05-11T08:58:46.519Z,17.70
2017-05-11T09:01:16.253Z,17.90
2017-05-11T09:03:50.651Z,18.00
2017-05-11T09:06:19.345Z,18.00
2017-05-11T09:08:55.572Z,18.20
2017-05-11T09:11:24.773Z,18.40
2017-05-11T09:13:52.855Z,18.60
2017-05-11T09:16:27.634Z,18.70
2017-05-11T09:18:56.106Z,18.80
2017-05-11T09:21:26.321Z,19.00
2017-05-11T09:24:00.212Z,19.10
2017-05-11T09:31:49.850Z,19.50
2017-05-11T09:34:24.642Z,19.60
2017-05-11T09:39:36.829Z,19.80
2017-05-11T09:44:42.106Z,20.00
2017-05-11T09:47:10.523Z,20.20
2017-05-11T09:49:45.052Z,20.40
2017-05-11T09:52:21.124Z,20.60
2017-05-11T09:54:56.637Z,20.80
2017-05-11T10:02:33.858Z,21.30
2017-05-11T10:10:32.348Z,21.60
2017-05-11T10:15:50.091Z,22.20
2017-05-11T10:18:22.241Z,22.60
2017-05-11T10:20:55.091Z,22.60
2017-05-11T10:28:54.741Z,23.10
2017-05-11T10:31:29.640Z,23.50
2017-05-11T10:47:30.928Z,24.60
2017-05-11T10:52:30.583Z,24.90
2017-05-11T10:55:02.743Z,25.30
2017-05-11T11:00:03.819Z,25.70
2017-05-11T11:02:33.732Z,26.20
2017-05-11T11:05:02.819Z,26.20
2017-05-11T11:16:00.339Z,27.40
2017-05-11T11:21:34.095Z,27.70
2017-05-11T11:24:21.207Z,27.60
2017-05-11T11:29:45.793Z,27.70
2017-05-11T11:47:09.764Z,27.80
2017-05-11T11:54:56.795Z,27.60
2017-05-11T12:03:00.272Z,31.90
2017-05-11T12:08:01.130Z,31.80
2017-05-11T12:15:57.169Z,31.50
2017-05-11T12:18:35.111Z,31.90
2017-05-11T12:24:37.769Z,33.80
2017-05-11T12:29:54.225Z,35.50
2017-05-11T12:48:18.547Z,32.00
2017-05-11T12:50:47.459Z,31.00
2017-05-11T12:53:16.035Z,30.20
2017-05-11T13:00:56.665Z,29.40
2017-05-11T13:05:58.696Z,28.90
2017-05-11T13:08:29.202Z,29.00
2017-05-11T13:18:52.816Z,28.90
2017-05-11T13:21:38.268Z,28.90
2017-05-11T13:26:52.709Z,28.60
2017-05-11T13:29:26.310Z,28.50
2017-05-11T13:48:33.428Z,29.50
2017-05-11T13:56:37.765Z,29.60
2017-05-11T13:59:10.717Z,30.70
2017-05-11T14:01:40.113Z,32.00
2017-05-11T14:04:07.623Z,32.00
2017-05-11T14:06:38.661Z,34.00
2017-05-11T14:12:01.188Z,36.20
2017-05-11T14:14:43.393Z,35.90
2017-05-11T14:17:11.684Z,35.90
2017-05-11T14:19:48.976Z,33.60
2017-05-11T14:22:17.714Z,32.10
2017-05-11T14:24:44.872Z,31.10
2017-05-11T14:27:12.109Z,31.10
2017-05-11T14:32:13.696Z,29.30
2017-05-11T14:34:40.209Z,28.30
2017-05-11T14:37:07.359Z,27.50
2017-05-11T14:39:35.433Z,27.40
2017-05-11T14:42:02.567Z,27.00
2017-05-11T14:44:29.680Z,26.70
2017-05-11T14:46:56.705Z,26.60
2017-05-11T14:49:25.324Z,26.40
2017-05-11T14:51:52.400Z,26.40
2017-05-11T14:54:19.920Z,26.10
2017-05-11T14:56:46.470Z,26.10
2017-05-11T14:59:14.020Z,25.40
2017-05-11T15:01:43.823Z,25.30
2017-05-11T15:04:11.383Z,25.20
2017-05-11T15:06:39.004Z,25.20
2017-05-11T15:09:07.840Z,25.00
2017-05-11T15:14:08.596Z,24.70
2017-05-11T15:16:36.165Z,24.70
2017-05-11T15:19:02.996Z,24.50
2017-05-11T15:21:30.140Z,24.50
2017-05-11T15:23:57.090Z,24.30
2017-05-11T15:26:25.130Z,24.20
2017-05-11T15:28:52.277Z,24.20
2017-05-11T15:31:20.053Z,23.90
2017-05-11T15:33:47.081Z,23.80
2017-05-11T15:36:14.283Z,23.70
2017-05-11T15:38:41.624Z,23.50
2017-05-11T15:41:08.944Z,23.10
2017-05-11T15:43:35.997Z,22.50
2017-05-11T15:46:02.838Z,21.70
2017-05-11T15:48:30.447Z,20.80
2017-05-11T15:50:59.838Z,20.00
2017-05-11T15:56:16.880Z,19.30
2017-05-11T15:58:43.959Z,18.60
2017-05-11T16:01:10.496Z,18.60
2017-05-11T16:03:38.664Z,18.70
2017-05-11T16:06:05.864Z,18.80
2017-05-11T16:08:33.446Z,18.90
2017-05-11T16:11:05.461Z,19.00
2017-05-11T16:13:36.475Z,19.00
2017-05-11T16:16:04.358Z,19.10
2017-05-11T16:18:32.143Z,19.30
2017-05-11T16:21:00.933Z,19.10
2017-05-11T16:23:29.575Z,19.00
2017-05-11T16:25:58.082Z,18.90
2017-05-11T16:28:25.314Z,18.80
2017-05-11T16:30:52.377Z,18.80
2017-05-11T16:33:19.526Z,18.80
2017-05-11T16:35:48.142Z,18.70
2017-05-11T16:38:18.556Z,18.70
2017-05-11T16:40:45.431Z,18.70
2017-05-11T16:43:15.170Z,18.70
2017-05-11T16:45:42.470Z,18.70
2017-05-11T16:48:09.437Z,18.60
2017-05-11T16:50:36.257Z,18.50
2017-05-11T16:53:03.815Z,18.40
2017-05-11T16:55:34.882Z,18.40
2017-05-11T16:58:01.321Z,18.40
2017-05-11T17:03:00.755Z,18.30
2017-05-11T17:05:28.493Z,18.40
2017-05-11T17:07:58.324Z,18.30
2017-05-11T17:10:27.760Z,18.20
2017-05-11T17:12:55.053Z,18.20
2017-05-11T17:15:21.620Z,18.20
2017-05-11T17:20:22.623Z,18.00
2017-05-11T17:25:26.072Z,17.90
2017-05-11T17:38:10.742Z,17.60
2017-05-11T17:40:43.301Z,17.60
2017-05-11T17:43:12.355Z,17.60
2017-05-11T17:45:40.909Z,17.50
2017-05-11T17:48:09.534Z,17.50
2017-05-11T17:53:16.961Z,17.50
2017-05-11T17:58:18.409Z,17.50
2017-05-11T18:00:52.856Z,17.60
2017-05-11T18:03:20.077Z,17.70
2017-05-11T18:05:50.743Z,17.50
2017-05-11T18:08:26.053Z,17.30
2017-05-11T18:10:58.413Z,17.20
2017-05-11T18:13:26.930Z,17.10
2017-05-11T18:18:36.541Z,17.10
2017-05-11T18:23:39.434Z,16.90
2017-05-11T18:26:07.072Z,16.90
2017-05-11T18:28:35.425Z,17.00
2017-05-11T18:31:04.337Z,17.00
2017-05-11T18:33:36.413Z,17.00
2017-05-11T18:38:42.659Z,17.00
2017-05-11T18:41:09.929Z,17.00
2017-05-11T18:46:13.160Z,17.10
2017-05-11T18:48:43.308Z,17.00
2017-05-11T18:51:11.669Z,16.90
2017-05-11T18:53:40.725Z,16.90
2017-05-11T18:56:09.383Z,17.00
2017-05-11T18:58:41.482Z,16.90
2017-05-11T19:01:09.154Z,16.90
2017-05-11T19:03:36.654Z,16.90
2017-05-11T19:08:38.132Z,16.80
2017-05-11T19:13:36.430Z,16.70
2017-05-11T19:16:04.862Z,16.80
2017-05-11T19:18:35.954Z,16.70
2017-05-11T19:26:16.281Z,16.50
2017-05-11T19:28:44.349Z,16.50
2017-05-11T19:33:44.462Z,16.50
2017-05-11T19:36:12.770Z,16.50
2017-05-11T19:41:18.410Z,16.30
2017-05-11T19:43:47.805Z,16.30
2017-05-11T19:46:22.235Z,16.30
2017-05-11T19:48:50.720Z,16.40
2017-05-11T19:51:17.926Z,16.40
2017-05-11T19:53:47.971Z,16.20
2017-05-11T19:56:15.754Z,16.20
2017-05-11T20:01:17.242Z,16.10
2017-05-11T20:03:46.178Z,16.20
2017-05-11T20:06:13.177Z,16.20
2017-05-11T20:08:40.871Z,16.10
2017-05-11T20:11:08.218Z,16.00
2017-05-11T20:13:34.946Z,16.00
2017-05-11T20:16:02.438Z,15.90
2017-05-11T20:18:29.570Z,15.90
2017-05-11T20:20:56.697Z,15.90
2017-05-11T20:23:25.108Z,15.90
2017-05-11T20:25:52.827Z,15.90
2017-05-11T20:28:19.573Z,15.90
2017-05-11T20:30:46.870Z,15.80
2017-05-11T20:33:14.183Z,15.90
2017-05-11T20:35:42.861Z,15.90
2017-05-11T20:38:13.566Z,16.00
2017-05-11T20:40:40.746Z,15.90
2017-05-11T20:43:07.578Z,15.80
2017-05-11T20:45:36.841Z,15.80
2017-05-11T20:48:04.216Z,15.80
2017-05-11T20:50:31.609Z,15.60
2017-05-11T20:52:59.215Z,15.60
2017-05-11T20:55:26.355Z,15.60
2017-05-11T20:57:53.358Z,15.50
2017-05-11T21:00:21.853Z,15.40
2017-05-11T21:02:50.057Z,15.40
2017-05-11T21:05:18.888Z,15.40
2017-05-11T21:07:46.031Z,15.40
2017-05-11T21:10:14.145Z,15.30
2017-05-11T21:12:42.392Z,15.30
2017-05-11T21:15:09.285Z,15.30
2017-05-11T21:17:37.965Z,15.30
2017-05-11T21:20:05.996Z,15.30
2017-05-11T21:22:33.052Z,15.30
2017-05-11T21:25:00.239Z,15.20
2017-05-11T21:27:27.715Z,15.20
2017-05-11T21:29:54.616Z,15.10
2017-05-11T21:32:23.052Z,15.10
2017-05-11T21:34:49.849Z,15.10
2017-05-11T21:37:17.657Z,15.10
2017-05-11T21:39:49.227Z,15.00
2017-05-11T21:42:16.315Z,15.10
2017-05-11T21:44:43.835Z,15.00
2017-05-11T21:47:11.625Z,14.90
2017-05-11T21:49:38.849Z,14.80
2017-05-11T21:52:05.711Z,14.80
2017-05-11T21:54:33.324Z,14.80
2017-05-11T21:57:00.241Z,14.80
2017-05-11T21:59:27.380Z,14.80
2017-05-11T22:01:55.048Z,14.70
2017-05-11T22:06:54.417Z,14.60
2017-05-11T22:09:22.033Z,14.60
2017-05-11T22:11:52.984Z,14.50
2017-05-11T22:14:24.175Z,14.40
2017-05-11T22:16:52.214Z,14.40
2017-05-11T22:19:19.356Z,14.30
2017-05-11T22:21:46.607Z,14.30
2017-05-11T22:24:14.284Z,14.30
2017-05-11T22:26:40.721Z,14.20
2017-05-11T22:29:07.155Z,14.30
2017-05-11T22:31:34.425Z,14.10
2017-05-11T22:34:01.192Z,14.10
2017-05-11T22:36:27.627Z,14.10
2017-05-11T22:38:54.654Z,14.00
2017-05-11T22:41:21.606Z,14.10
2017-05-11T22:43:48.723Z,13.90
2017-05-11T22:46:15.504Z,13.90
2017-05-11T22:48:42.369Z,14.00
2017-05-11T22:51:09.405Z,14.00
2017-05-11T22:53:36.996Z,13.90
2017-05-11T22:56:04.134Z,14.00
2017-05-11T22:58:30.608Z,14.00
2017-05-11T23:00:59.153Z,14.00
2017-05-11T23:03:26.777Z,14.20
2017-05-11T23:05:53.925Z,14.20
2017-05-11T23:08:24.249Z,14.10
2017-05-11T23:10:51.296Z,14.00
2017-05-11T23:13:18.303Z,13.90
2017-05-11T23:15:46.384Z,13.90
2017-05-11T23:18:12.753Z,13.90
2017-05-11T23:20:40.528Z,13.80
2017-05-11T23:23:08.472Z,13.80
2017-05-11T23:25:36.641Z,13.80
2017-05-11T23:28:03.285Z,13.90
2017-05-11T23:30:30.356Z,13.80
2017-05-11T23:32:57.715Z,13.80
2017-05-11T23:35:24.583Z,13.80
2017-05-11T23:37:51.658Z,13.90
2017-05-11T23:40:20.494Z,14.10
2017-05-11T23:42:47.508Z,14.20
2017-05-11T23:45:14.678Z,14.00
2017-05-11T23:47:42.073Z,14.00
2017-05-11T23:50:09.686Z,14.10
2017-05-11T23:52:36.723Z,14.20
2017-05-11T23:55:04.038Z,14.20
2017-05-11T23:57:30.443Z,14.20
2017-05-11T23:59:56.977Z,14.10
